createdAt,value
2018-09-10T00:00:21.568Z,10.30
2018-09-10T00:02:49.985Z,10.30
2018-09-10T00:05:18.336Z,10.30
2018-09-10T00:07:46.676Z,10.30
2018-09-10T00:10:15.027Z,10.30
2018-09-10T00:12:43.408Z,10.20
2018-09-10T00:15:11.711Z,10.20
2018-09-10T00:17:40.136Z,10.20
2018-09-10T00:20:08.458Z,10.10
2018-09-10T00:22:36.761Z,10.00
2018-09-10T00:25:05.900Z,10.10
2018-09-10T00:27:34.220Z,10.10
2018-09-10T00:30:02.540Z,10.00
2018-09-10T00:32:30.836Z,9.90
2018-09-10T00:34:59.222Z,9.80
2018-09-10T00:37:27.533Z,9.90
2018-09-10T00:39:55.797Z,9.90
2018-09-10T00:42:24.129Z,9.80
2018-09-10T00:44:52.410Z,9.80
2018-09-10T00:47:20.723Z,9.70
2018-09-10T00:49:49.061Z,9.80
2018-09-10T00:52:17.355Z,9.80
2018-09-10T00:54:45.679Z,9.70
2018-09-10T00:57:13.964Z,9.80
2018-09-10T00:59:42.261Z,9.70
2018-09-10T01:02:10.567Z,9.80
2018-09-10T01:04:38.863Z,9.80
2018-09-10T01:07:07.288Z,9.90
2018-09-10T01:09:35.635Z,10.00
2018-09-10T01:12:03.964Z,9.90
2018-09-10T01:14:32.321Z,10.00
2018-09-10T01:17:00.775Z,10.00
2018-09-10T01:19:29.093Z,9.90
2018-09-10T01:21:57.441Z,9.80
2018-09-10T01:24:25.795Z,9.90
2018-09-10T01:26:54.095Z,9.90
2018-09-10T01:29:22.470Z,9.80
2018-09-10T01:31:50.878Z,10.00
2018-09-10T01:34:24.611Z,9.90
2018-09-10T01:36:53.067Z,10.00
2018-09-10T01:39:21.356Z,9.90
2018-09-10T01:41:49.718Z,9.90
2018-09-10T01:44:18.089Z,9.90
2018-09-10T01:46:46.389Z,10.00
2018-09-10T01:49:14.708Z,10.00
2018-09-10T01:51:43.033Z,10.10
2018-09-10T01:54:11.343Z,10.10
2018-09-10T01:56:39.646Z,10.20
2018-09-10T01:59:07.978Z,10.30
2018-09-10T02:01:36.315Z,10.40
2018-09-10T02:04:04.657Z,10.40
2018-09-10T02:06:32.983Z,10.40
2018-09-10T02:09:01.349Z,10.40
2018-09-10T02:11:29.649Z,10.50
2018-09-10T02:13:58.371Z,10.50
2018-09-10T02:16:26.675Z,10.60
2018-09-10T02:18:54.994Z,10.70
2018-09-10T02:21:23.315Z,10.70
2018-09-10T02:23:51.651Z,10.60
2018-09-10T02:26:19.951Z,10.70
2018-09-10T02:28:48.255Z,10.60
2018-09-10T02:31:16.625Z,10.60
2018-09-10T02:33:44.930Z,10.60
2018-09-10T02:36:13.259Z,10.60
2018-09-10T02:38:41.669Z,10.50
2018-09-10T02:41:09.937Z,10.50
2018-09-10T02:43:38.248Z,10.50
2018-09-10T02:46:06.824Z,10.50
2018-09-10T02:48:35.165Z,10.40
2018-09-10T02:51:03.542Z,10.40
2018-09-10T02:53:31.873Z,10.40
2018-09-10T02:56:00.215Z,10.30
2018-09-10T02:58:28.534Z,10.30
2018-09-10T03:00:56.885Z,10.20
2018-09-10T03:03:25.223Z,10.10
2018-09-10T03:05:53.577Z,10.10
2018-09-10T03:08:21.864Z,10.00
2018-09-10T03:10:50.181Z,9.70
2018-09-10T03:13:18.503Z,9.60
2018-09-10T03:15:46.805Z,9.60
2018-09-10T03:18:15.121Z,9.50
2018-09-10T03:20:43.450Z,9.50
2018-09-10T03:23:11.772Z,9.50
2018-09-10T03:25:40.135Z,9.60
2018-09-10T03:28:08.478Z,9.60
2018-09-10T03:30:37.143Z,9.60
2018-09-10T03:33:05.474Z,9.60
2018-09-10T03:35:33.816Z,9.60
2018-09-10T03:38:02.147Z,9.70
2018-09-10T03:40:30.469Z,9.80
2018-09-10T03:42:59.047Z,9.80
2018-09-10T03:45:27.377Z,9.80
2018-09-10T03:47:55.711Z,9.80
2018-09-10T03:50:24.032Z,9.70
2018-09-10T03:52:52.328Z,9.80
2018-09-10T03:55:20.639Z,9.90
2018-09-10T03:57:48.939Z,9.80
2018-09-10T04:00:17.248Z,9.80
2018-09-10T04:02:45.589Z,9.70
2018-09-10T04:05:13.941Z,9.60
2018-09-10T04:07:42.250Z,9.50
2018-09-10T04:10:10.590Z,9.50
2018-09-10T04:12:38.888Z,9.40
2018-09-10T04:15:07.249Z,9.30
2018-09-10T04:17:35.555Z,9.40
2018-09-10T04:20:09.933Z,9.40
2018-09-10T04:22:39.178Z,9.40
2018-09-10T04:25:07.898Z,9.40
2018-09-10T04:27:37.089Z,9.40
2018-09-10T04:30:07.685Z,9.40
2018-09-10T04:32:35.997Z,9.40
2018-09-10T04:35:04.361Z,9.30
2018-09-10T04:37:32.677Z,9.30
2018-09-10T04:40:00.997Z,9.20
2018-09-10T04:42:29.296Z,9.30
2018-09-10T04:44:57.779Z,9.30
2018-09-10T04:47:26.136Z,9.30
2018-09-10T04:49:54.414Z,9.30
2018-09-10T04:52:22.745Z,9.30
2018-09-10T04:54:51.041Z,9.20
2018-09-10T04:57:19.336Z,9.10
2018-09-10T04:59:47.692Z,9.00
2018-09-10T05:02:16.143Z,9.10
2018-09-10T05:04:44.517Z,9.10
2018-09-10T05:07:12.870Z,9.20
2018-09-10T05:09:41.209Z,9.20
2018-09-10T05:12:09.560Z,9.30
2018-09-10T05:14:37.914Z,9.30
2018-09-10T05:17:06.287Z,9.40
2018-09-10T05:19:35.102Z,9.50
2018-09-10T05:22:04.420Z,9.50
2018-09-10T05:24:32.783Z,9.60
2018-09-10T05:27:01.096Z,9.70
2018-09-10T05:29:29.385Z,9.60
2018-09-10T05:31:57.741Z,9.80
2018-09-10T05:34:26.162Z,10.00
2018-09-10T05:36:54.509Z,10.00
2018-09-10T05:39:22.797Z,10.10
2018-09-10T05:41:51.145Z,10.20
2018-09-10T05:44:19.483Z,10.30
2018-09-10T05:46:47.812Z,10.40
2018-09-10T05:49:16.160Z,10.50
2018-09-10T05:51:44.655Z,10.50
2018-09-10T05:54:12.958Z,10.60
2018-09-10T05:56:41.323Z,10.70
2018-09-10T05:59:09.694Z,10.80
2018-09-10T06:01:38.006Z,10.70
2018-09-10T06:04:07.703Z,10.70
2018-09-10T06:06:36.204Z,10.60
2018-09-10T06:09:05.854Z,10.70
2018-09-10T06:11:34.186Z,10.90
2018-09-10T06:14:02.572Z,10.90
2018-09-10T06:16:30.888Z,10.90
2018-09-10T06:18:59.319Z,10.90
2018-09-10T06:21:27.648Z,11.00
2018-09-10T06:23:56.003Z,11.20
2018-09-10T06:26:24.625Z,11.30
2018-09-10T06:28:52.979Z,11.50
2018-09-10T06:31:21.280Z,11.70
2018-09-10T06:33:49.652Z,11.90
2018-09-10T06:36:17.963Z,12.00
2018-09-10T06:38:46.274Z,12.20
2018-09-10T06:41:14.632Z,12.60
2018-09-10T06:43:42.991Z,12.90
2018-09-10T06:46:12.201Z,13.30
2018-09-10T06:48:40.526Z,13.60
2018-09-10T06:51:08.852Z,14.00
2018-09-10T06:53:37.197Z,14.40
2018-09-10T06:56:05.945Z,14.80
2018-09-10T06:58:35.148Z,15.30
2018-09-10T07:01:03.834Z,15.50
2018-09-10T07:03:32.185Z,16.00
2018-09-10T07:06:00.588Z,16.40
2018-09-10T07:08:28.960Z,16.90
2018-09-10T07:10:57.433Z,17.40
2018-09-10T07:13:26.261Z,18.10
2018-09-10T07:15:54.970Z,18.40
2018-09-10T07:18:23.399Z,18.20
2018-09-10T07:20:52.021Z,18.20
2018-09-10T07:23:20.420Z,18.00
2018-09-10T07:25:48.762Z,17.90
2018-09-10T07:28:17.177Z,17.90
2018-09-10T07:30:45.524Z,18.20
2018-09-10T07:33:14.254Z,18.10
2018-09-10T07:35:43.180Z,18.50
2018-09-10T07:38:12.122Z,18.80
2018-09-10T07:40:40.602Z,19.20
2018-09-10T07:43:08.969Z,19.80
2018-09-10T07:45:37.308Z,19.90
2018-09-10T07:48:06.148Z,19.70
2018-09-10T07:50:34.458Z,19.70
2018-09-10T07:53:02.892Z,19.80
2018-09-10T07:55:31.253Z,19.50
2018-09-10T07:57:59.629Z,19.00
2018-09-10T08:00:28.023Z,18.60
2018-09-10T08:02:56.578Z,18.30
2018-09-10T08:05:24.951Z,18.00
2018-09-10T08:07:53.306Z,18.00
2018-09-10T08:10:21.660Z,18.10
2018-09-10T08:12:50.209Z,18.10
2018-09-10T08:15:18.560Z,18.30
2018-09-10T08:17:46.933Z,18.40
2018-09-10T08:20:15.323Z,18.70
2018-09-10T08:22:43.693Z,18.70
2018-09-10T08:25:12.229Z,18.90
2018-09-10T08:27:40.548Z,19.30
2018-09-10T08:30:08.915Z,19.70
2018-09-10T08:32:37.334Z,20.10
2018-09-10T08:35:05.751Z,20.40
2018-09-10T08:37:34.180Z,20.60
2018-09-10T08:40:02.666Z,20.70
2018-09-10T08:42:31.013Z,20.50
2018-09-10T08:44:59.451Z,20.50
2018-09-10T08:47:27.805Z,20.60
2018-09-10T08:49:56.179Z,20.60
2018-09-10T08:52:24.539Z,20.80
2018-09-10T08:54:53.251Z,21.00
2018-09-10T08:57:21.308Z,21.10
2018-09-10T08:59:49.650Z,21.10
2018-09-10T09:02:18.014Z,21.30
2018-09-10T09:04:46.352Z,21.60
2018-09-10T09:07:14.709Z,22.10
2018-09-10T09:09:43.111Z,22.30
2018-09-10T09:12:11.440Z,22.30
2018-09-10T09:14:39.807Z,22.30
2018-09-10T09:17:08.155Z,22.40
2018-09-10T09:19:36.532Z,22.40
2018-09-10T09:22:04.873Z,22.50
2018-09-10T09:24:33.215Z,22.70
2018-09-10T09:27:01.552Z,22.70
2018-09-10T09:29:29.878Z,22.70
2018-09-10T09:31:58.609Z,22.50
2018-09-10T09:34:31.169Z,22.50
2018-09-10T09:37:05.305Z,22.50
2018-09-10T09:39:39.101Z,22.50
2018-09-10T09:42:12.769Z,22.50
2018-09-10T09:44:46.487Z,22.70
2018-09-10T09:47:14.886Z,22.70
2018-09-10T09:49:43.205Z,22.70
2018-09-10T09:52:11.565Z,22.70
2018-09-10T09:54:39.917Z,22.70
2018-09-10T09:57:08.248Z,22.70
2018-09-10T09:59:36.728Z,22.80
2018-09-10T10:02:10.346Z,22.90
2018-09-10T10:04:38.820Z,23.00
2018-09-10T10:07:07.117Z,22.90
2018-09-10T10:09:35.460Z,23.00
2018-09-10T10:12:03.815Z,23.00
2018-09-10T10:14:32.254Z,23.10
2018-09-10T10:17:00.673Z,23.20
2018-09-10T10:19:29.046Z,23.50
2018-09-10T10:21:57.418Z,23.40
2018-09-10T10:24:25.807Z,23.40
2018-09-10T10:26:54.180Z,23.50
2018-09-10T10:29:22.533Z,23.70
2018-09-10T10:31:50.965Z,23.70
2018-09-10T10:34:19.316Z,23.70
2018-09-10T10:36:47.712Z,23.70
2018-09-10T10:39:16.077Z,24.10
2018-09-10T10:41:44.432Z,24.10
2018-09-10T10:44:12.822Z,24.30
2018-09-10T10:46:41.173Z,24.50
2018-09-10T10:49:09.556Z,24.70
2018-09-10T10:51:37.981Z,24.90
2018-09-10T10:54:06.319Z,25.10
2018-09-10T10:56:34.747Z,25.40
2018-09-10T10:59:03.275Z,25.50
2018-09-10T11:01:31.628Z,25.50
2018-09-10T11:04:00.142Z,25.50
2018-09-10T11:06:28.541Z,25.80
2018-09-10T11:08:56.925Z,25.70
2018-09-10T11:11:25.244Z,25.90
2018-09-10T11:13:53.605Z,26.10
2018-09-10T11:16:22.029Z,26.20
2018-09-10T11:18:50.390Z,26.30
2018-09-10T11:21:18.811Z,26.30
2018-09-10T11:23:47.208Z,26.10
2018-09-10T11:26:15.577Z,26.10
2018-09-10T11:28:43.954Z,25.70
2018-09-10T11:31:12.340Z,25.70
2018-09-10T11:33:40.710Z,25.90
2018-09-10T11:36:09.151Z,26.10
2018-09-10T11:38:37.550Z,26.30
2018-09-10T11:41:06.023Z,26.40
2018-09-10T11:43:34.436Z,26.50
2018-09-10T11:46:02.894Z,26.60
2018-09-10T11:48:31.271Z,26.60
2018-09-10T11:51:00.149Z,26.40
2018-09-10T11:53:28.501Z,26.30
2018-09-10T11:55:56.902Z,26.20
2018-09-10T11:58:25.257Z,26.30
2018-09-10T12:00:53.912Z,26.10
2018-09-10T12:03:22.309Z,26.20
2018-09-10T12:05:50.998Z,26.30
2018-09-10T12:08:19.363Z,26.40
2018-09-10T12:10:47.668Z,26.40
2018-09-10T12:13:16.455Z,26.40
2018-09-10T12:15:44.811Z,26.30
2018-09-10T12:18:13.184Z,26.40
2018-09-10T12:20:41.562Z,26.40
2018-09-10T12:23:09.899Z,26.50
2018-09-10T12:25:38.308Z,26.40
2018-09-10T12:28:06.825Z,26.40
2018-09-10T12:30:36.038Z,26.50
2018-09-10T12:33:04.462Z,26.10
2018-09-10T12:35:32.847Z,25.90
2018-09-10T12:38:01.177Z,25.90
2018-09-10T12:40:29.569Z,25.90
2018-09-10T12:42:57.921Z,25.80
2018-09-10T12:45:26.316Z,25.60
2018-09-10T12:47:54.649Z,25.50
2018-09-10T12:50:23.093Z,25.50
2018-09-10T12:52:51.592Z,25.60
2018-09-10T12:55:19.967Z,25.70
2018-09-10T12:57:48.321Z,25.80
2018-09-10T13:00:16.668Z,26.00
2018-09-10T13:02:45.058Z,26.20
2018-09-10T13:05:13.441Z,26.10
2018-09-10T13:07:42.240Z,26.40
2018-09-10T13:10:10.614Z,27.00
2018-09-10T13:12:38.997Z,27.70
2018-09-10T13:15:07.396Z,27.80
2018-09-10T13:17:35.732Z,27.70
2018-09-10T13:20:05.002Z,27.40
2018-09-10T13:22:33.489Z,27.80
2018-09-10T13:25:01.837Z,27.70
2018-09-10T13:27:30.233Z,28.10
2018-09-10T13:29:58.771Z,28.30
2018-09-10T13:32:27.291Z,28.10
2018-09-10T13:34:55.645Z,27.80
2018-09-10T13:37:24.437Z,27.50
2018-09-10T13:39:53.006Z,27.20
2018-09-10T13:42:21.981Z,27.20
2018-09-10T13:44:50.393Z,26.90
2018-09-10T13:47:18.699Z,27.40
2018-09-10T13:49:47.191Z,28.10
2018-09-10T13:52:15.607Z,28.60
2018-09-10T13:54:44.351Z,28.60
2018-09-10T13:57:13.326Z,27.40
2018-09-10T13:59:41.758Z,27.20
2018-09-10T14:02:10.120Z,27.10
2018-09-10T14:04:38.577Z,27.10
2018-09-10T14:07:06.888Z,27.30
2018-09-10T14:09:35.283Z,27.50
2018-09-10T14:12:03.709Z,27.70
2018-09-10T14:14:32.168Z,28.20
2018-09-10T14:17:00.592Z,28.60
2018-09-10T14:19:28.997Z,28.40
2018-09-10T14:21:57.534Z,28.20
2018-09-10T14:24:25.943Z,27.70
2018-09-10T14:26:54.327Z,27.70
2018-09-10T14:29:22.712Z,27.10
2018-09-10T14:31:51.125Z,26.80
2018-09-10T14:34:19.549Z,26.90
2018-09-10T14:36:48.351Z,27.30
2018-09-10T14:39:16.756Z,27.20
2018-09-10T14:41:45.184Z,26.70
2018-09-10T14:44:13.689Z,26.60
2018-09-10T14:46:42.088Z,26.90
2018-09-10T14:49:10.429Z,27.10
2018-09-10T14:51:38.845Z,27.00
2018-09-10T14:54:07.307Z,26.50
2018-09-10T14:56:35.821Z,26.30
2018-09-10T14:59:04.240Z,26.40
2018-09-10T15:01:32.782Z,26.60
2018-09-10T15:04:01.425Z,26.80
2018-09-10T15:06:29.834Z,27.20
2018-09-10T15:08:58.495Z,26.90
2018-09-10T15:11:27.025Z,26.50
2018-09-10T15:13:55.476Z,26.30
2018-09-10T15:16:23.938Z,26.00
2018-09-10T15:18:52.460Z,25.60
2018-09-10T15:21:20.756Z,25.40
2018-09-10T15:23:49.142Z,25.40
2018-09-10T15:26:17.552Z,25.70
2018-09-10T15:28:46.084Z,26.10
2018-09-10T15:31:14.570Z,26.50
2018-09-10T15:33:42.944Z,26.00
2018-09-10T15:36:11.852Z,25.80
2018-09-10T15:38:40.312Z,26.20
2018-09-10T15:41:08.650Z,25.90
2018-09-10T15:43:37.058Z,25.50
2018-09-10T15:46:05.441Z,25.40
2018-09-10T15:48:33.838Z,25.40
2018-09-10T15:51:02.261Z,25.50
2018-09-10T15:53:30.593Z,25.30
2018-09-10T15:55:59.629Z,25.30
2018-09-10T15:58:28.025Z,25.10
2018-09-10T16:00:56.446Z,24.90
2018-09-10T16:03:24.900Z,24.70
2018-09-10T16:05:53.254Z,24.50
2018-09-10T16:08:21.727Z,24.50
2018-09-10T16:10:50.116Z,24.60
2018-09-10T16:13:18.541Z,24.70
2018-09-10T16:15:46.930Z,24.80
2018-09-10T16:18:15.424Z,24.60
2018-09-10T16:20:43.821Z,24.80
2018-09-10T16:23:12.185Z,25.30
2018-09-10T16:25:40.615Z,25.50
2018-09-10T16:28:09.041Z,25.90
2018-09-10T16:30:37.463Z,26.20
2018-09-10T16:33:06.029Z,26.20
2018-09-10T16:35:34.513Z,25.90
2018-09-10T16:38:02.973Z,25.50
2018-09-10T16:40:31.372Z,25.20
2018-09-10T16:43:00.209Z,25.10
2018-09-10T16:45:28.893Z,25.00
2018-09-10T16:47:57.571Z,25.20
2018-09-10T16:50:26.043Z,25.00
2018-09-10T16:52:54.429Z,24.70
2018-09-10T16:55:22.908Z,24.40
2018-09-10T16:57:51.346Z,24.30
2018-09-10T17:00:19.946Z,24.30
2018-09-10T17:02:48.721Z,24.40
2018-09-10T17:05:17.314Z,24.20
2018-09-10T17:07:45.716Z,23.90
2018-09-10T17:10:14.192Z,23.80
2018-09-10T17:12:42.853Z,23.60
2018-09-10T17:15:11.291Z,23.50
2018-09-10T17:17:39.779Z,23.30
2018-09-10T17:20:08.229Z,23.20
2018-09-10T17:22:36.777Z,23.20
2018-09-10T17:25:05.182Z,23.10
2018-09-10T17:27:33.602Z,23.00
2018-09-10T17:30:02.054Z,22.90
2018-09-10T17:32:30.769Z,22.80
2018-09-10T17:34:59.232Z,22.80
2018-09-10T17:37:27.644Z,22.60
2018-09-10T17:39:56.007Z,22.50
2018-09-10T17:42:25.228Z,22.40
2018-09-10T17:44:53.663Z,22.30
2018-09-10T17:47:22.072Z,22.30
2018-09-10T17:49:50.720Z,22.20
2018-09-10T17:52:19.211Z,22.10
2018-09-10T17:54:47.746Z,22.00
2018-09-10T17:57:16.103Z,21.90
2018-09-10T17:59:44.633Z,21.80
2018-09-10T18:02:13.260Z,21.60
2018-09-10T18:04:41.687Z,21.40
2018-09-10T18:07:10.123Z,21.20
2018-09-10T18:09:38.638Z,20.90
2018-09-10T18:12:07.041Z,20.80
2018-09-10T18:14:35.454Z,20.60
2018-09-10T18:17:03.836Z,20.60
2018-09-10T18:19:33.361Z,20.50
2018-09-10T18:22:01.741Z,20.50
2018-09-10T18:24:30.752Z,20.50
2018-09-10T18:26:59.950Z,20.40
2018-09-10T18:29:28.468Z,20.30
2018-09-10T18:31:57.133Z,20.20
2018-09-10T18:34:25.617Z,20.10
2018-09-10T18:36:54.757Z,20.10
2018-09-10T18:39:23.137Z,20.00
2018-09-10T18:41:51.875Z,19.90
2018-09-10T18:44:20.239Z,19.80
2018-09-10T18:46:48.682Z,19.70
2018-09-10T18:49:17.130Z,19.60
2018-09-10T18:51:45.531Z,19.50
2018-09-10T18:54:14.900Z,19.40
2018-09-10T18:56:43.411Z,19.30
2018-09-10T18:59:11.788Z,19.20
2018-09-10T19:01:40.307Z,19.20
2018-09-10T19:04:09.568Z,19.00
2018-09-10T19:06:38.335Z,19.00
2018-09-10T19:09:09.119Z,18.80
2018-09-10T19:11:37.501Z,18.80
2018-09-10T19:14:06.024Z,18.70
2018-09-10T19:16:34.490Z,18.60
2018-09-10T19:19:02.840Z,18.50
2018-09-10T19:21:31.260Z,18.50
2018-09-10T19:23:59.938Z,18.40
2018-09-10T19:26:28.315Z,18.30
2018-09-10T19:28:56.723Z,18.20
2018-09-10T19:31:25.164Z,18.20
2018-09-10T19:33:53.810Z,18.20
2018-09-10T19:36:22.247Z,18.20
2018-09-10T19:38:50.914Z,18.20
2018-09-10T19:41:19.314Z,18.30
2018-09-10T19:43:49.223Z,18.20
2018-09-10T19:46:17.612Z,18.10
2018-09-10T19:48:46.137Z,18.00
2018-09-10T19:51:14.949Z,17.70
2018-09-10T19:53:43.473Z,17.70
2018-09-10T19:56:12.227Z,17.70
2018-09-10T19:58:40.677Z,17.70
2018-09-10T20:01:09.665Z,17.70
2018-09-10T20:03:38.059Z,17.60
2018-09-10T20:06:06.453Z,17.60
2018-09-10T20:08:34.901Z,17.50
2018-09-10T20:11:03.390Z,17.50
2018-09-10T20:13:31.851Z,17.40
2018-09-10T20:16:00.317Z,17.40
2018-09-10T20:18:28.681Z,17.30
2018-09-10T20:20:57.183Z,17.30
2018-09-10T20:23:25.553Z,17.20
2018-09-10T20:25:54.260Z,17.10
2018-09-10T20:28:22.758Z,17.10
2018-09-10T20:30:51.139Z,17.00
2018-09-10T20:33:20.195Z,17.00
2018-09-10T20:35:48.611Z,17.00
2018-09-10T20:38:17.282Z,17.00
2018-09-10T20:40:46.756Z,17.00
2018-09-10T20:43:15.872Z,16.90
2018-09-10T20:45:48.255Z,16.80
2018-09-10T20:48:16.701Z,16.70
2018-09-10T20:50:45.143Z,16.70
2018-09-10T20:53:13.551Z,16.80
2018-09-10T20:55:42.069Z,16.70
2018-09-10T20:58:10.603Z,16.60
2018-09-10T21:00:39.250Z,16.60
2018-09-10T21:03:07.841Z,16.50
2018-09-10T21:05:36.327Z,16.40
2018-09-10T21:08:04.860Z,16.40
2018-09-10T21:10:33.437Z,19.70
2018-09-10T21:13:02.004Z,16.00
2018-09-10T21:15:30.573Z,15.90
2018-09-10T21:17:59.176Z,15.80
2018-09-10T21:20:27.684Z,15.70
2018-09-10T21:22:56.422Z,15.60
2018-09-10T21:25:25.143Z,15.60
2018-09-10T21:27:56.014Z,15.50
2018-09-10T21:30:24.557Z,15.40
2018-09-10T21:32:53.093Z,15.40
2018-09-10T21:35:22.146Z,15.40
2018-09-10T21:37:50.896Z,15.40
2018-09-10T21:40:19.405Z,15.40
2018-09-10T21:42:48.028Z,15.40
2018-09-10T21:45:16.773Z,15.20
2018-09-10T21:47:46.094Z,15.20
2018-09-10T21:50:14.694Z,15.10
2018-09-10T21:52:43.528Z,15.00
2018-09-10T21:55:13.051Z,14.90
2018-09-10T21:57:41.728Z,14.90
2018-09-10T22:00:11.017Z,14.80
2018-09-10T22:02:39.649Z,14.70
2018-09-10T22:05:08.123Z,14.60
2018-09-10T22:07:36.495Z,14.50
2018-09-10T22:12:43.476Z,14.50
2018-09-10T22:15:12.361Z,14.40
2018-09-10T22:17:41.346Z,14.40
2018-09-10T22:20:10.084Z,14.30
2018-09-10T22:22:38.640Z,14.30
2018-09-10T22:25:07.452Z,14.30
2018-09-10T22:27:47.791Z,14.40
2018-09-10T22:30:16.235Z,14.30
2018-09-10T22:32:44.761Z,14.30
2018-09-10T22:35:14.592Z,14.20
2018-09-10T22:37:43.169Z,14.20
2018-09-10T22:40:12.730Z,14.10
2018-09-10T22:42:43.896Z,14.00
2018-09-10T22:45:13.623Z,14.00
2018-09-10T22:47:42.337Z,14.00
2018-09-10T22:50:10.866Z,13.90
2018-09-10T22:52:39.515Z,13.90
2018-09-10T22:55:08.253Z,13.80
2018-09-10T22:57:36.785Z,13.70
2018-09-10T23:00:07.064Z,13.70
2018-09-10T23:02:36.039Z,13.70
2018-09-10T23:05:04.704Z,13.60
2018-09-10T23:07:33.228Z,13.50
2018-09-10T23:10:01.969Z,13.40
2018-09-10T23:12:30.467Z,13.30
2018-09-10T23:14:59.318Z,13.20
2018-09-10T23:17:28.011Z,13.20
2018-09-10T23:19:56.538Z,13.10
2018-09-10T23:22:25.004Z,13.00
2018-09-10T23:24:53.509Z,13.00
2018-09-10T23:27:22.986Z,13.00
2018-09-10T23:29:51.452Z,12.90
2018-09-10T23:32:20.008Z,12.80
2018-09-10T23:34:48.525Z,12.80
2018-09-10T23:37:17.984Z,12.70
2018-09-10T23:39:46.332Z,12.70
2018-09-10T23:42:22.657Z,12.60
2018-09-10T23:44:50.976Z,12.60
2018-09-10T23:47:19.298Z,12.50
2018-09-10T23:49:47.620Z,12.50
2018-09-10T23:52:16.065Z,12.50
2018-09-10T23:54:44.380Z,12.50
2018-09-10T23:57:12.683Z,12.40
2018-09-10T23:59:41.066Z,12.40
